sensor_id;sensor_type;location;lat;lon;timestamp;pressure;altitude;pressure_sealevel;temperature;humidity
62708;BME280;48769;51.624;5.886;2023-02-28T00:01:08;102911.13;;;0.36;86.25
62708;BME280;48769;51.624;5.886;2023-02-28T00:03:33;102916.25;;;0.33;86.88
62708;BME280;48769;51.624;5.886;2023-02-28T00:06:03;102915.31;;;0.31;87.23
62708;BME280;48769;51.624;5.886;2023-02-28T00:08:29;102906.53;;;0.26;87.32
62708;BME280;48769;51.624;5.886;2023-02-28T00:10:54;102904.78;;;0.25;87.75
62708;BME280;48769;51.624;5.886;2023-02-28T00:13:20;102915.97;;;0.22;87.68
62708;BME280;48769;51.624;5.886;2023-02-28T00:15:45;102915.88;;;0.17;87.86
62708;BME280;48769;51.624;5.886;2023-02-28T00:18:11;102918.47;;;0.17;88.50
62708;BME280;48769;51.624;5.886;2023-02-28T00:20:37;102908.00;;;0.14;88.49
62708;BME280;48769;51.624;5.886;2023-02-28T00:23:02;102910.53;;;0.13;89.28
62708;BME280;48769;51.624;5.886;2023-02-28T00:25:28;102910.50;;;0.11;89.39
62708;BME280;48769;51.624;5.886;2023-02-28T00:27:53;102907.03;;;0.11;88.88
62708;BME280;48769;51.624;5.886;2023-02-28T00:30:21;102910.53;;;0.13;89.20
62708;BME280;48769;51.624;5.886;2023-02-28T00:32:47;102911.44;;;0.13;89.35
62708;BME280;48769;51.624;5.886;2023-02-28T00:35:13;102901.91;;;0.14;89.25
62708;BME280;48769;51.624;5.886;2023-02-28T00:37:38;102899.28;;;0.12;89.34
62708;BME280;48769;51.624;5.886;2023-02-28T00:40:05;102904.47;;;0.12;88.81
62708;BME280;48769;51.624;5.886;2023-02-28T00:42:31;102904.38;;;0.09;88.98
62708;BME280;48769;51.624;5.886;2023-02-28T00:44:57;102899.25;;;0.11;88.96
62708;BME280;48769;51.624;5.886;2023-02-28T00:47:22;102900.06;;;0.10;88.75
62708;BME280;48769;51.624;5.886;2023-02-28T00:49:48;102905.34;;;0.13;88.69
62708;BME280;48769;51.624;5.886;2023-02-28T00:52:13;102910.53;;;0.13;88.51
62708;BME280;48769;51.624;5.886;2023-02-28T00:54:38;102902.66;;;0.08;88.45
62708;BME280;48769;51.624;5.886;2023-02-28T00:57:04;102913.06;;;0.10;87.96
62708;BME280;48769;51.624;5.886;2023-02-28T00:59:29;102916.41;;;0.04;87.88
62708;BME280;48769;51.624;5.886;2023-02-28T01:01:55;102913.72;;;0.01;88.79
62708;BME280;48769;51.624;5.886;2023-02-28T01:04:20;102913.66;;;-0.02;88.58
62708;BME280;48769;51.624;5.886;2023-02-28T01:06:45;102919.63;;;-0.06;88.93
62708;BME280;48769;51.624;5.886;2023-02-28T01:09:11;102919.53;;;-0.09;90.26
62708;BME280;48769;51.624;5.886;2023-02-28T01:11:37;102936.09;;;-0.06;90.25
62708;BME280;48769;51.624;5.886;2023-02-28T01:14:04;102930.81;;;-0.09;89.99
62708;BME280;48769;51.624;5.886;2023-02-28T01:16:29;102931.59;;;-0.11;89.52
62708;BME280;48769;51.624;5.886;2023-02-28T01:18:55;102936.78;;;-0.11;90.39
62708;BME280;48769;51.624;5.886;2023-02-28T01:21:22;102928.16;;;-0.10;90.23
62708;BME280;48769;51.624;5.886;2023-02-28T01:23:48;102931.59;;;-0.11;89.97
62708;BME280;48769;51.624;5.886;2023-02-28T01:26:21;102934.16;;;-0.13;89.90
62708;BME280;48769;51.624;5.886;2023-02-28T01:28:48;102923.63;;;-0.17;89.86
62708;BME280;48769;51.624;5.886;2023-02-28T01:31:14;102924.50;;;-0.17;90.51
62708;BME280;48769;51.624;5.886;2023-02-28T01:33:40;102928.81;;;-0.19;90.70
62708;BME280;48769;51.624;5.886;2023-02-28T01:36:09;102928.91;;;-0.14;91.76
62708;BME280;48769;51.624;5.886;2023-02-28T01:38:35;102921.97;;;-0.15;92.11
62708;BME280;48769;51.624;5.886;2023-02-28T01:41:01;102927.34;;;-0.08;92.64
62708;BME280;48769;51.624;5.886;2023-02-28T01:43:32;102912.84;;;0.01;93.10
62708;BME280;48769;51.624;5.886;2023-02-28T01:46:16;102913.88;;;0.07;92.68
62708;BME280;48769;51.624;5.886;2023-02-28T01:51:30;102899.13;;;0.06;91.90
62708;BME280;48769;51.624;5.886;2023-02-28T01:54:07;102899.03;;;0.03;92.06
62708;BME280;48769;51.624;5.886;2023-02-28T01:56:41;102902.56;;;0.05;92.42
62708;BME280;48769;51.624;5.886;2023-02-28T01:59:08;102902.66;;;0.08;92.28
62708;BME280;48769;51.624;5.886;2023-02-28T02:01:34;102906.13;;;0.09;92.07
62708;BME280;48769;51.624;5.886;2023-02-28T02:04:02;102900.97;;;0.10;91.30
62708;BME280;48769;51.624;5.886;2023-02-28T02:06:30;102904.38;;;0.09;90.52
62708;BME280;48769;51.624;5.886;2023-02-28T02:08:58;102903.59;;;0.12;90.31
62708;BME280;48769;51.624;5.886;2023-02-28T02:11:24;102901.88;;;0.12;90.58
62708;BME280;48769;51.624;5.886;2023-02-28T02:16:42;102894.06;;;0.11;90.33
62708;BME280;48769;51.624;5.886;2023-02-28T02:36:17;102892.09;;;0.02;91.08
62708;BME280;48769;51.624;5.886;2023-02-28T02:41:29;102893.13;;;0.09;90.75
62708;BME280;48769;51.624;5.886;2023-02-28T02:44:27;102901.00;;;0.12;91.71
62708;BME280;48769;51.624;5.886;2023-02-28T02:46:59;102892.47;;;0.17;91.40
62708;BME280;48769;51.624;5.886;2023-02-28T02:49:30;102898.56;;;0.19;91.12
62708;BME280;48769;51.624;5.886;2023-02-28T02:52:01;102894.31;;;0.21;91.17
62708;BME280;48769;51.624;5.886;2023-02-28T02:54:33;102896.19;;;0.29;90.58
62708;BME280;48769;51.624;5.886;2023-02-28T02:57:05;102893.66;;;0.30;91.29
62708;BME280;48769;51.624;5.886;2023-02-28T02:59:35;102884.19;;;0.34;91.18
62708;BME280;48769;51.624;5.886;2023-02-28T03:02:04;102891.28;;;0.41;91.29
62708;BME280;48769;51.624;5.886;2023-02-28T03:04:34;102903.59;;;0.48;90.62
62708;BME280;48769;51.624;5.886;2023-02-28T03:07:03;102892.47;;;0.54;89.97
62708;BME280;48769;51.624;5.886;2023-02-28T03:09:28;102883.81;;;0.55;88.94
62708;BME280;48769;51.624;5.886;2023-02-28T03:11:55;102888.06;;;0.51;89.69
62708;BME280;48769;51.624;5.886;2023-02-28T03:19:51;102877.88;;;0.60;88.71
62708;BME280;48769;51.624;5.886;2023-02-28T03:25:50;102888.34;;;0.63;88.71
62708;BME280;48769;51.624;5.886;2023-02-28T03:31:32;102883.41;;;0.76;88.16
62708;BME280;48769;51.624;5.886;2023-02-28T03:33:59;102875.75;;;0.82;87.49
62708;BME280;48769;51.624;5.886;2023-02-28T03:36:33;102878.34;;;0.82;87.51
62708;BME280;48769;51.624;5.886;2023-02-28T03:39:14;102876.63;;;0.84;87.68
62708;BME280;48769;51.624;5.886;2023-02-28T03:41:59;102879.44;;;0.93;87.02
62708;BME280;48769;51.624;5.886;2023-02-28T03:44:33;102884.63;;;0.91;86.90
62708;BME280;48769;51.624;5.886;2023-02-28T03:47:14;102886.41;;;0.94;86.57
62708;BME280;48769;51.624;5.886;2023-02-28T03:49:54;102889.91;;;0.95;86.38
62708;BME280;48769;51.624;5.886;2023-02-28T03:52:27;102883.84;;;0.97;86.71
62708;BME280;48769;51.624;5.886;2023-02-28T03:54:58;102887.38;;;0.99;86.38
62708;BME280;48769;51.624;5.886;2023-02-28T04:00:05;102886.53;;;1.00;86.96
62708;BME280;48769;51.624;5.886;2023-02-28T04:02:32;102875.34;;;1.04;86.81
62708;BME280;48769;51.624;5.886;2023-02-28T04:04:58;102864.16;;;1.08;85.97
62708;BME280;48769;51.624;5.886;2023-02-28T04:07:24;102865.88;;;1.08;86.57
62708;BME280;48769;51.624;5.886;2023-02-28T04:09:50;102863.28;;;1.09;86.27
62708;BME280;48769;51.624;5.886;2023-02-28T04:12:16;102873.72;;;1.09;85.96
62708;BME280;48769;51.624;5.886;2023-02-28T04:14:41;102870.22;;;1.07;86.19
62708;BME280;48769;51.624;5.886;2023-02-28T04:17:06;102868.56;;;1.12;85.45
62708;BME280;48769;51.624;5.886;2023-02-28T04:19:32;102871.22;;;1.14;85.65
62708;BME280;48769;51.624;5.886;2023-02-28T04:21:57;102868.63;;;1.15;85.71
62708;BME280;48769;51.624;5.886;2023-02-28T04:24:26;102871.28;;;1.17;85.70
62708;BME280;48769;51.624;5.886;2023-02-28T04:26:54;102871.28;;;1.19;85.60
62708;BME280;48769;51.624;5.886;2023-02-28T04:29:31;102884.28;;;1.17;86.21
62708;BME280;48769;51.624;5.886;2023-02-28T04:31:58;102888.53;;;1.13;85.69
62708;BME280;48769;51.624;5.886;2023-02-28T04:34:27;102883.31;;;1.13;86.27
62708;BME280;48769;51.624;5.886;2023-02-28T04:36:54;102877.34;;;1.17;86.43
62708;BME280;48769;51.624;5.886;2023-02-28T04:39:24;102879.13;;;1.20;86.60
62708;BME280;48769;51.624;5.886;2023-02-28T04:41:50;102882.63;;;1.21;87.36
62708;BME280;48769;51.624;5.886;2023-02-28T04:44:16;102880.84;;;1.20;87.62
62708;BME280;48769;51.624;5.886;2023-02-28T04:46:42;102886.97;;;1.22;87.73
62708;BME280;48769;51.624;5.886;2023-02-28T04:49:09;102886.97;;;1.22;87.13
62708;BME280;48769;51.624;5.886;2023-02-28T04:51:35;102888.72;;;1.23;87.49
62708;BME280;48769;51.624;5.886;2023-02-28T04:54:01;102882.63;;;1.21;87.18
62708;BME280;48769;51.624;5.886;2023-02-28T04:56:26;102880.03;;;1.21;87.10
62708;BME280;48769;51.624;5.886;2023-02-28T04:58:52;102891.25;;;1.20;87.51
62708;BME280;48769;51.624;5.886;2023-02-28T05:01:24;102898.19;;;1.17;87.30
62708;BME280;48769;51.624;5.886;2023-02-28T05:03:52;102887.84;;;1.21;86.72
62708;BME280;48769;51.624;5.886;2023-02-28T05:06:18;102898.25;;;1.21;86.69
62708;BME280;48769;51.624;5.886;2023-02-28T05:08:45;102900.91;;;1.24;86.52
62708;BME280;48769;51.624;5.886;2023-02-28T05:11:17;102897.41;;;1.23;86.14
62708;BME280;48769;51.624;5.886;2023-02-28T05:13:43;102901.78;;;1.24;86.17
62708;BME280;48769;51.624;5.886;2023-02-28T05:16:08;102909.69;;;1.29;85.55
62708;BME280;48769;51.624;5.886;2023-02-28T05:18:34;102909.69;;;1.29;85.90
62708;BME280;48769;51.624;5.886;2023-02-28T05:20:59;102910.47;;;1.25;85.38
62708;BME280;48769;51.624;5.886;2023-02-28T05:23:27;102906.94;;;1.23;85.88
62708;BME280;48769;51.624;5.886;2023-02-28T05:25:52;102903.53;;;1.27;85.96
62708;BME280;48769;51.624;5.886;2023-02-28T05:28:18;102910.47;;;1.25;86.24
62708;BME280;48769;51.624;5.886;2023-02-28T05:30:44;102906.00;;;1.19;86.07
62708;BME280;48769;51.624;5.886;2023-02-28T05:33:11;102911.28;;;1.22;86.25
62708;BME280;48769;51.624;5.886;2023-02-28T05:35:38;102914.81;;;1.26;85.71
62708;BME280;48769;51.624;5.886;2023-02-28T05:38:04;102915.69;;;1.25;85.37
62708;BME280;48769;51.624;5.886;2023-02-28T05:40:29;102912.97;;;1.20;85.43
62708;BME280;48769;51.624;5.886;2023-02-28T05:42:54;102911.03;;;1.10;85.72
62708;BME280;48769;51.624;5.886;2023-02-28T05:45:20;102918.75;;;1.05;85.40
62708;BME280;48769;51.624;5.886;2023-02-28T05:47:45;102916.88;;;0.98;85.82
62708;BME280;48769;51.624;5.886;2023-02-28T05:50:11;102916.81;;;0.97;85.89
62708;BME280;48769;51.624;5.886;2023-02-28T05:52:36;102918.53;;;0.96;85.99
62708;BME280;48769;51.624;5.886;2023-02-28T05:55:03;102921.94;;;0.92;86.99
62708;BME280;48769;51.624;5.886;2023-02-28T05:57:28;102925.28;;;0.86;87.20
62708;BME280;48769;51.624;5.886;2023-02-28T05:59:53;102930.41;;;0.83;87.67
62708;BME280;48769;51.624;5.886;2023-02-28T06:02:19;102934.56;;;0.75;87.75
62708;BME280;48769;51.624;5.886;2023-02-28T06:04:45;102932.78;;;0.74;88.46
62708;BME280;48769;51.624;5.886;2023-02-28T06:07:11;102923.41;;;0.81;87.69
62708;BME280;48769;51.624;5.886;2023-02-28T06:09:37;102918.13;;;0.78;87.55
62708;BME280;48769;51.624;5.886;2023-02-28T06:12:04;102925.84;;;0.73;87.89
62708;BME280;48769;51.624;5.886;2023-02-28T06:14:31;102927.50;;;0.69;88.01
62708;BME280;48769;51.624;5.886;2023-02-28T06:16:57;102941.28;;;0.65;88.45
62708;BME280;48769;51.624;5.886;2023-02-28T06:19:23;102937.75;;;0.63;88.92
62708;BME280;48769;51.624;5.886;2023-02-28T06:21:51;102941.28;;;0.65;88.96
62708;BME280;48769;51.624;5.886;2023-02-28T06:24:20;102940.38;;;0.63;88.92
62708;BME280;48769;51.624;5.886;2023-02-28T06:26:46;102944.72;;;0.64;88.28
62708;BME280;48769;51.624;5.886;2023-02-28T06:29:12;102949.84;;;0.61;88.34
62708;BME280;48769;51.624;5.886;2023-02-28T06:31:42;102947.28;;;0.63;88.32
62708;BME280;48769;51.624;5.886;2023-02-28T06:34:10;102946.34;;;0.59;88.57
62708;BME280;48769;51.624;5.886;2023-02-28T06:36:38;102948.00;;;0.56;88.73
62708;BME280;48769;51.624;5.886;2023-02-28T06:39:03;102943.53;;;0.52;88.32
62708;BME280;48769;51.624;5.886;2023-02-28T06:41:29;102952.09;;;0.46;88.20
62708;BME280;48769;51.624;5.886;2023-02-28T06:43:54;102948.50;;;0.41;88.60
62708;BME280;48769;51.624;5.886;2023-02-28T06:46:20;102943.16;;;0.35;89.38
62708;BME280;48769;51.624;5.886;2023-02-28T06:48:46;102957.84;;;0.33;90.07
62708;BME280;48769;51.624;5.886;2023-02-28T06:51:18;102954.25;;;0.29;90.65
62708;BME280;48769;51.624;5.886;2023-02-28T06:53:45;102954.25;;;0.28;89.75
62708;BME280;48769;51.624;5.886;2023-02-28T06:56:12;102959.53;;;0.32;89.43
62708;BME280;48769;51.624;5.886;2023-02-28T06:58:38;102961.25;;;0.30;89.75
62708;BME280;48769;51.624;5.886;2023-02-28T07:01:05;102961.34;;;0.35;89.07
62708;BME280;48769;51.624;5.886;2023-02-28T07:03:31;102957.94;;;0.37;89.43
62708;BME280;48769;51.624;5.886;2023-02-28T07:05:56;102960.56;;;0.39;89.10
62708;BME280;48769;51.624;5.886;2023-02-28T07:08:23;102959.75;;;0.40;88.70
62708;BME280;48769;51.624;5.886;2023-02-28T07:10:53;102968.44;;;0.42;88.23
62708;BME280;48769;51.624;5.886;2023-02-28T07:13:19;102961.50;;;0.41;87.53
62708;BME280;48769;51.624;5.886;2023-02-28T07:16:02;102967.69;;;0.46;87.63
62708;BME280;48769;51.624;5.886;2023-02-28T07:18:28;102962.56;;;0.49;87.39
62708;BME280;48769;51.624;5.886;2023-02-28T07:20:54;102959.19;;;0.53;86.93
62708;BME280;48769;51.624;5.886;2023-02-28T07:23:20;102971.56;;;0.63;85.76
62708;BME280;48769;51.624;5.886;2023-02-28T07:25:46;102971.72;;;0.69;84.72
62708;BME280;48769;51.624;5.886;2023-02-28T07:28:12;102965.78;;;0.75;83.01
62708;BME280;48769;51.624;5.886;2023-02-28T07:30:39;102966.03;;;0.87;83.14
62708;BME280;48769;51.624;5.886;2023-02-28T07:33:04;102962.19;;;1.09;81.17
62708;BME280;48769;51.624;5.886;2023-02-28T07:35:31;102967.16;;;1.39;80.26
62708;BME280;48769;51.624;5.886;2023-02-28T07:37:59;102961.72;;;1.27;77.53
62708;BME280;48769;51.624;5.886;2023-02-28T07:40:25;102973.81;;;1.25;78.61
62708;BME280;48769;51.624;5.886;2023-02-28T07:42:51;102975.63;;;1.28;78.35
62708;BME280;48769;51.624;5.886;2023-02-28T07:45:16;102981.03;;;1.38;77.62
62708;BME280;48769;51.624;5.886;2023-02-28T07:47:43;102974.41;;;1.53;76.56
62708;BME280;48769;51.624;5.886;2023-02-28T07:50:11;102973.94;;;1.74;75.31
62708;BME280;48769;51.624;5.886;2023-02-28T07:52:37;102972.81;;;2.06;74.79
62708;BME280;48769;51.624;5.886;2023-02-28T07:55:04;102966.84;;;2.12;71.85
62708;BME280;48769;51.624;5.886;2023-02-28T07:57:30;102960.34;;;2.40;72.09
62708;BME280;48769;51.624;5.886;2023-02-28T07:59:55;102957.09;;;3.87;68.40
62708;BME280;48769;51.624;5.886;2023-02-28T08:02:21;102941.66;;;5.69;62.39
62708;BME280;48769;51.624;5.886;2023-02-28T08:04:46;102939.72;;;7.43;58.06
62708;BME280;48769;51.624;5.886;2023-02-28T08:07:13;102941.38;;;8.78;52.27
62708;BME280;48769;51.624;5.886;2023-02-28T08:09:39;102944.50;;;9.77;48.66
62708;BME280;48769;51.624;5.886;2023-02-28T08:12:06;102944.75;;;10.73;46.89
62708;BME280;48769;51.624;5.886;2023-02-28T08:14:31;102946.94;;;10.96;44.04
62708;BME280;48769;51.624;5.886;2023-02-28T08:16:57;102943.16;;;11.50;43.19
62708;BME280;48769;51.624;5.886;2023-02-28T08:19:22;102945.13;;;12.19;42.18
62708;BME280;48769;51.624;5.886;2023-02-28T08:21:48;102931.44;;;12.70;39.02
62708;BME280;48769;51.624;5.886;2023-02-28T08:24:13;102935.47;;;13.16;38.30
62708;BME280;48769;51.624;5.886;2023-02-28T08:26:38;102935.22;;;14.11;37.31
62708;BME280;48769;51.624;5.886;2023-02-28T08:29:04;102920.00;;;14.41;34.15
62708;BME280;48769;51.624;5.886;2023-02-28T08:31:29;102931.25;;;14.23;35.63
62708;BME280;48769;51.624;5.886;2023-02-28T08:33:54;102936.63;;;14.98;35.11
62708;BME280;48769;51.624;5.886;2023-02-28T08:36:23;102937.47;;;15.71;33.51
62708;BME280;48769;51.624;5.886;2023-02-28T08:38:49;102939.44;;;16.09;33.42
62708;BME280;48769;51.624;5.886;2023-02-28T08:41:14;102933.97;;;15.45;32.12
62708;BME280;48769;51.624;5.886;2023-02-28T08:43:40;102937.47;;;16.35;32.03
62708;BME280;48769;51.624;5.886;2023-02-28T08:46:06;102936.78;;;16.30;31.67
62708;BME280;48769;51.624;5.886;2023-02-28T08:48:34;102936.31;;;16.20;31.09
62708;BME280;48769;51.624;5.886;2023-02-28T08:51:05;102938.13;;;16.40;30.12
62708;BME280;48769;51.624;5.886;2023-02-28T08:53:31;102934.56;;;16.62;29.55
62708;BME280;48769;51.624;5.886;2023-02-28T08:56:01;102936.09;;;17.27;29.00
62708;BME280;48769;51.624;5.886;2023-02-28T08:58:27;102931.00;;;17.96;28.50
62708;BME280;48769;51.624;5.886;2023-02-28T09:00:53;102935.34;;;17.61;26.47
62708;BME280;48769;51.624;5.886;2023-02-28T09:03:20;102939.09;;;17.38;27.72
62708;BME280;48769;51.624;5.886;2023-02-28T09:05:59;102930.22;;;18.12;25.11
62708;BME280;48769;51.624;5.886;2023-02-28T09:08:28;102932.03;;;17.56;27.00
62708;BME280;48769;51.624;5.886;2023-02-28T09:10:54;102933.19;;;17.32;26.90
62708;BME280;48769;51.624;5.886;2023-02-28T09:13:22;102931.91;;;17.40;27.08
62708;BME280;48769;51.624;5.886;2023-02-28T09:15:48;102929.78;;;18.38;25.98
62708;BME280;48769;51.624;5.886;2023-02-28T09:18:13;102930.09;;;18.50;26.19
62708;BME280;48769;51.624;5.886;2023-02-28T09:20:40;102920.06;;;17.65;26.28
62708;BME280;48769;51.624;5.886;2023-02-28T09:23:07;102918.47;;;17.23;26.45
62708;BME280;48769;51.624;5.886;2023-02-28T09:25:33;102918.28;;;16.88;26.49
62708;BME280;48769;51.624;5.886;2023-02-28T09:27:59;102921.22;;;16.62;26.66
62708;BME280;48769;51.624;5.886;2023-02-28T09:30:24;102925.78;;;16.99;27.40
62708;BME280;48769;51.624;5.886;2023-02-28T09:32:50;102919.44;;;17.01;26.25
62708;BME280;48769;51.624;5.886;2023-02-28T09:35:25;102920.91;;;16.27;26.13
62708;BME280;48769;51.624;5.886;2023-02-28T09:37:51;102923.22;;;15.01;26.04
62708;BME280;48769;51.624;5.886;2023-02-28T09:40:18;102923.63;;;14.90;28.23
62708;BME280;48769;51.624;5.886;2023-02-28T09:42:49;102927.84;;;14.71;27.48
62708;BME280;48769;51.624;5.886;2023-02-28T09:47:56;102917.56;;;15.56;26.57
62708;BME280;48769;51.624;5.886;2023-02-28T09:52:53;102916.97;;;14.79;26.71
62708;BME280;48769;51.624;5.886;2023-02-28T09:55:20;102919.09;;;13.89;27.37
62708;BME280;48769;51.624;5.886;2023-02-28T09:57:50;102915.00;;;12.89;28.14
62708;BME280;48769;51.624;5.886;2023-02-28T10:00:45;102911.88;;;12.42;28.22
62708;BME280;48769;51.624;5.886;2023-02-28T10:03:32;102913.50;;;12.11;28.73
62708;BME280;48769;51.624;5.886;2023-02-28T10:06:13;102912.59;;;11.36;29.89
62708;BME280;48769;51.624;5.886;2023-02-28T10:08:45;102927.81;;;10.82;29.84
62708;BME280;48769;51.624;5.886;2023-02-28T10:11:16;102915.28;;;10.91;30.04
62708;BME280;48769;51.624;5.886;2023-02-28T10:13:56;102908.41;;;11.26;28.03
62708;BME280;48769;51.624;5.886;2023-02-28T10:19:20;102904.81;;;10.87;29.89
62708;BME280;48769;51.624;5.886;2023-02-28T10:24:44;102916.16;;;12.13;28.83
62708;BME280;48769;51.624;5.886;2023-02-28T10:27:22;102906.97;;;11.90;28.81
62708;BME280;48769;51.624;5.886;2023-02-28T10:29:53;102908.41;;;12.38;28.80
62708;BME280;48769;51.624;5.886;2023-02-28T10:32:21;102907.00;;;12.25;29.03
62708;BME280;48769;51.624;5.886;2023-02-28T10:34:56;102906.97;;;11.90;29.17
62708;BME280;48769;51.624;5.886;2023-02-28T10:37:22;102906.56;;;12.07;29.38
62708;BME280;48769;51.624;5.886;2023-02-28T10:39:47;102902.41;;;11.58;29.01
62708;BME280;48769;51.624;5.886;2023-02-28T10:42:27;102901.03;;;10.53;29.52
62708;BME280;48769;51.624;5.886;2023-02-28T10:45:13;102891.19;;;11.07;29.82
62708;BME280;48769;51.624;5.886;2023-02-28T10:48:01;102893.00;;;11.82;29.05
62708;BME280;48769;51.624;5.886;2023-02-28T10:53:07;102896.72;;;11.75;29.37
62708;BME280;48769;51.624;5.886;2023-02-28T10:55:33;102891.69;;;10.82;29.71
62708;BME280;48769;51.624;5.886;2023-02-28T10:57:59;102897.53;;;10.51;30.91
62708;BME280;48769;51.624;5.886;2023-02-28T11:00:25;102894.47;;;10.26;31.60
62708;BME280;48769;51.624;5.886;2023-02-28T11:02:51;102889.19;;;10.26;31.66
62708;BME280;48769;51.624;5.886;2023-02-28T11:05:29;102890.03;;;10.28;31.54
62708;BME280;48769;51.624;5.886;2023-02-28T11:07:57;102895.66;;;10.60;31.78
62708;BME280;48769;51.624;5.886;2023-02-28T11:10:27;102895.41;;;11.56;30.92
62708;BME280;48769;51.624;5.886;2023-02-28T11:12:55;102892.66;;;11.98;29.53
62708;BME280;48769;51.624;5.886;2023-02-28T11:15:25;102882.19;;;12.27;28.72
62708;BME280;48769;51.624;5.886;2023-02-28T11:17:57;102871.78;;;11.85;28.42
62708;BME280;48769;51.624;5.886;2023-02-28T11:20:26;102875.19;;;11.13;29.04
62708;BME280;48769;51.624;5.886;2023-02-28T11:22:54;102879.00;;;10.99;30.35
62708;BME280;48769;51.624;5.886;2023-02-28T11:25:23;102879.41;;;10.78;30.28
62708;BME280;48769;51.624;5.886;2023-02-28T11:27:58;102877.63;;;10.79;30.72
62708;BME280;48769;51.624;5.886;2023-02-28T11:30:38;102874.25;;;11.15;30.44
62708;BME280;48769;51.624;5.886;2023-02-28T11:33:26;102875.66;;;11.30;29.23
62708;BME280;48769;51.624;5.886;2023-02-28T11:35:52;102864.09;;;11.73;30.00
62708;BME280;48769;51.624;5.886;2023-02-28T11:38:19;102866.72;;;11.73;29.25
62708;BME280;48769;51.624;5.886;2023-02-28T11:41:05;102867.09;;;11.97;28.63
62708;BME280;48769;51.624;5.886;2023-02-28T11:43:59;102861.22;;;12.20;29.82
62708;BME280;48769;51.624;5.886;2023-02-28T11:46:35;102868.00;;;11.96;29.80
62708;BME280;48769;51.624;5.886;2023-02-28T11:49:28;102859.38;;;11.49;30.07
62708;BME280;48769;51.624;5.886;2023-02-28T11:52:08;102866.53;;;11.05;30.41
62708;BME280;48769;51.624;5.886;2023-02-28T11:54:58;102867.03;;;10.80;31.12
62708;BME280;48769;51.624;5.886;2023-02-28T12:03:48;102856.94;;;11.39;29.77
62708;BME280;48769;51.624;5.886;2023-02-28T12:07:01;102860.56;;;10.95;30.38
62708;BME280;48769;51.624;5.886;2023-02-28T12:09:47;102857.28;;;10.84;30.91
62708;BME280;48769;51.624;5.886;2023-02-28T12:17:51;102837.06;;;12.63;27.42
62708;BME280;48769;51.624;5.886;2023-02-28T12:25:50;102822.97;;;14.28;26.38
62708;BME280;48769;51.624;5.886;2023-02-28T12:28:25;102824.63;;;14.57;26.35
62708;BME280;48769;51.624;5.886;2023-02-28T12:33:48;102812.38;;;14.53;25.58
62708;BME280;48769;51.624;5.886;2023-02-28T12:36:18;102810.13;;;14.89;26.05
62708;BME280;48769;51.624;5.886;2023-02-28T12:39:17;102804.84;;;15.11;24.94
62708;BME280;48769;51.624;5.886;2023-02-28T12:41:54;102811.00;;;15.34;25.13
62708;BME280;48769;51.624;5.886;2023-02-28T12:44:28;102813.28;;;15.67;24.89
62708;BME280;48769;51.624;5.886;2023-02-28T12:46:59;102794.56;;;15.68;24.80
62708;BME280;48769;51.624;5.886;2023-02-28T12:49:37;102788.88;;;15.11;25.56
62708;BME280;48769;51.624;5.886;2023-02-28T12:52:04;102798.19;;;15.43;26.23
62708;BME280;48769;51.624;5.886;2023-02-28T12:54:35;102796.38;;;15.66;24.88
62708;BME280;48769;51.624;5.886;2023-02-28T12:57:12;102795.88;;;14.90;24.72
62708;BME280;48769;51.624;5.886;2023-02-28T12:59:49;102789.81;;;14.87;25.19
62708;BME280;48769;51.624;5.886;2023-02-28T13:05:50;102780.97;;;14.63;25.70
62708;BME280;48769;51.624;5.886;2023-02-28T13:08:37;102785.81;;;14.99;25.35
62708;BME280;48769;51.624;5.886;2023-02-28T13:11:07;102771.88;;;15.36;24.44
62708;BME280;48769;51.624;5.886;2023-02-28T13:13:32;102762.66;;;15.87;24.43
62708;BME280;48769;51.624;5.886;2023-02-28T13:16:09;102757.22;;;15.90;23.74
62708;BME280;48769;51.624;5.886;2023-02-28T13:18:39;102768.06;;;16.06;25.03
62708;BME280;48769;51.624;5.886;2023-02-28T13:21:21;102764.59;;;16.82;23.88
62708;BME280;48769;51.624;5.886;2023-02-28T13:34:32;102758.13;;;15.47;25.11
62708;BME280;48769;51.624;5.886;2023-02-28T13:47:48;102747.81;;;14.71;26.10
62708;BME280;48769;51.624;5.886;2023-02-28T13:50:27;102745.41;;;13.92;26.83
62708;BME280;48769;51.624;5.886;2023-02-28T14:06:29;102750.22;;;11.39;29.54
62708;BME280;48769;51.624;5.886;2023-02-28T14:08:58;102761.97;;;11.27;30.32
62708;BME280;48769;51.624;5.886;2023-02-28T14:11:31;102756.69;;;11.27;30.57
62708;BME280;48769;51.624;5.886;2023-02-28T14:13:57;102751.69;;;11.15;30.91
62708;BME280;48769;51.624;5.886;2023-02-28T14:16:25;102756.63;;;10.91;30.80
62708;BME280;48769;51.624;5.886;2023-02-28T14:18:56;102753.13;;;10.50;31.29
62708;BME280;48769;51.624;5.886;2023-02-28T14:21:27;102744.34;;;10.48;31.70
62708;BME280;48769;51.624;5.886;2023-02-28T14:27:11;102741.81;;;10.84;31.94
62708;BME280;48769;51.624;5.886;2023-02-28T14:30:24;102749.38;;;10.61;31.36
62708;BME280;48769;51.624;5.886;2023-02-28T14:39:20;102753.47;;;10.32;32.46
62708;BME280;48769;51.624;5.886;2023-02-28T14:41:47;102752.53;;;9.88;32.51
62708;BME280;48769;51.624;5.886;2023-02-28T14:44:23;102742.41;;;10.10;32.46
62708;BME280;48769;51.624;5.886;2023-02-28T14:49:52;102729.53;;;9.93;32.98
62708;BME280;48769;51.624;5.886;2023-02-28T14:52:27;102739.41;;;9.83;33.78
62708;BME280;48769;51.624;5.886;2023-02-28T14:55:02;102736.44;;;9.52;33.57
62708;BME280;48769;51.624;5.886;2023-02-28T14:57:39;102734.41;;;9.14;34.75
62708;BME280;48769;51.624;5.886;2023-02-28T15:00:20;102740.78;;;8.99;34.72
62708;BME280;48769;51.624;5.886;2023-02-28T15:02:46;102744.97;;;9.12;34.42
62708;BME280;48769;51.624;5.886;2023-02-28T15:07:44;102737.31;;;8.97;34.63
62708;BME280;48769;51.624;5.886;2023-02-28T15:13:12;102726.69;;;9.02;34.83
62708;BME280;48769;51.624;5.886;2023-02-28T15:15:46;102737.31;;;8.96;35.49
62708;BME280;48769;51.624;5.886;2023-02-28T15:21:13;102738.81;;;9.13;34.88